Time;durP1;ratioP1;P1;durP2;ratioP2;P2;SDS_P1;SDS_P2;PMS_P1;PMS_P2;Temp;Humidity;BMP_temperature;BMP_pressure;BME280_temperature;BME280_humidity;BME280_pressure;Samples;Min_cycle;Max_cycle;Signal;HPM_P1;HPM_P2
2022/06/27 00:00:47;;;;;;;1.60;1.60;;;19.40;87.20;;;;;;5040333;28;20257;-73
2022/06/27 00:03:13;;;;;;;15.02;1.77;;;19.30;87.00;;;;;;5039070;28;20701;-73
2022/06/27 00:05:39;;;;;;;3.38;1.40;;;19.30;86.50;;;;;;5041787;28;20231;-74
2022/06/27 00:08:05;;;;;;;1.42;1.35;;;19.30;87.40;;;;;;5032013;28;20190;-72
2022/06/27 00:10:32;;;;;;;1.08;1.08;;;19.30;87.10;;;;;;5032126;28;20199;-73
2022/06/27 00:12:57;;;;;;;0.98;0.98;;;19.20;86.90;;;;;;5038814;28;20250;-72
2022/06/27 00:15:23;;;;;;;1.30;1.30;;;19.20;86.80;;;;;;5040970;28;20200;-72
2022/06/27 00:17:50;;;;;;;2.05;1.10;;;19.20;87.20;;;;;;5040444;28;20184;-73
2022/06/27 00:20:15;;;;;;;1.15;1.15;;;19.10;87.30;;;;;;5040387;28;20180;-72
2022/06/27 00:22:41;;;;;;;1.10;1.08;;;19.10;87.70;;;;;;5041994;28;20245;-73
2022/06/27 00:25:08;;;;;;;1.00;0.93;;;19.10;87.80;;;;;;5037964;28;20361;-72
2022/06/27 00:27:34;;;;;;;2.65;1.10;;;19.00;87.50;;;;;;5046971;28;20188;-73
2022/06/27 00:30:00;;;;;;;1.10;1.10;;;19.00;87.70;;;;;;5044322;28;20186;-72
2022/06/27 00:32:26;;;;;;;1.25;1.20;;;19.00;87.70;;;;;;5043826;28;20188;-73
2022/06/27 00:34:52;;;;;;;1.02;1.02;;;18.90;87.40;;;;;;5042200;28;20180;-72
2022/06/27 00:37:18;;;;;;;1.35;1.35;;;18.90;87.90;;;;;;5033127;28;20227;-73
2022/06/27 00:39:44;;;;;;;1.10;1.10;;;18.90;87.90;;;;;;5034300;28;20219;-73
2022/06/27 00:42:10;;;;;;;3.85;1.35;;;18.80;87.60;;;;;;5037917;28;20635;-72
2022/06/27 00:44:39;;;;;;;1.00;1.00;;;18.80;87.60;;;;;;5035672;28;20179;-73
2022/06/27 00:47:07;;;;;;;2.58;1.35;;;18.80;87.50;;;;;;5041323;28;20261;-73
2022/06/27 00:49:34;;;;;;;0.90;0.90;;;18.70;87.90;;;;;;5032829;28;20210;-73
2022/06/27 00:52:02;;;;;;;1.00;1.00;;;18.70;87.70;;;;;;5038795;28;20198;-73
2022/06/27 00:54:29;;;;;;;1.02;1.02;;;18.70;88.40;;;;;;5038617;28;20689;-73
2022/06/27 00:56:55;;;;;;;3.63;1.20;;;18.60;87.10;;;;;;5039068;28;20230;-72
2022/06/27 00:59:21;;;;;;;1.25;1.25;;;18.60;87.10;;;;;;5043136;28;20215;-72
2022/06/27 01:01:46;;;;;;;1.30;1.30;;;18.60;87.50;;;;;;5043545;28;20212;-72
2022/06/27 01:04:12;;;;;;;1.17;1.17;;;18.60;87.60;;;;;;5027407;28;20669;-73
2022/06/27 01:06:38;;;;;;;1.80;1.70;;;18.50;87.30;;;;;;5044568;28;20215;-74
2022/06/27 01:09:04;;;;;;;1.30;1.30;;;18.50;88.00;;;;;;5043583;28;20306;-73
2022/06/27 01:11:30;;;;;;;1.70;1.60;;;18.50;87.80;;;;;;5043575;28;20898;-73
2022/06/27 01:13:56;;;;;;;1.40;1.40;;;18.50;88.20;;;;;;5042524;28;20206;-73
2022/06/27 01:16:23;;;;;;;1.45;1.45;;;18.50;87.80;;;;;;5034495;28;20196;-73
2022/06/27 01:18:49;;;;;;;2.50;1.40;;;18.50;88.70;;;;;;5044711;28;20185;-73
2022/06/27 01:21:38;;;;;;;2.70;1.67;;;18.40;88.40;;;;;;5043822;28;20700;-73
2022/06/27 01:24:04;;;;;;;2.15;2.05;;;18.40;87.20;;;;;;5033602;28;20188;-74
2022/06/27 01:26:29;;;;;;;1.13;1.13;;;18.40;87.80;;;;;;5043362;28;20184;-73
2022/06/27 01:28:55;;;;;;;1.58;1.33;;;18.30;87.90;;;;;;5034610;28;20175;-74
2022/06/27 01:31:21;;;;;;;2.95;1.52;;;18.30;88.10;;;;;;5035114;28;20211;-73
2022/06/27 01:33:46;;;;;;;2.95;1.55;;;18.30;88.60;;;;;;5040804;28;20180;-75
2022/06/27 01:38:58;;;;;;;1.60;1.60;;;18.30;88.40;;;;;;5043751;28;20194;-74
2022/06/27 01:41:23;;;;;;;1.63;1.48;;;18.30;88.80;;;;;;5039229;28;20216;-74
2022/06/27 01:43:49;;;;;;;1.30;1.20;;;18.30;88.90;;;;;;5039801;28;20315;-74
2022/06/27 01:46:15;;;;;;;1.50;1.50;;;18.30;89.40;;;;;;5046472;28;20190;-73
2022/06/27 01:48:41;;;;;;;0.90;0.90;;;18.30;89.80;;;;;;5041936;28;20194;-74
2022/06/27 01:51:09;;;;;;;1.77;1.67;;;18.30;90.50;;;;;;5037438;28;20381;-73
2022/06/27 01:53:36;;;;;;;1.25;1.25;;;18.20;89.90;;;;;;5044943;28;20218;-73
2022/06/27 01:56:02;;;;;;;1.65;1.30;;;18.20;89.70;;;;;;5043202;28;20180;-73
2022/06/27 01:58:28;;;;;;;5.40;1.80;;;18.20;90.60;;;;;;5036671;28;20262;-73
2022/06/27 02:00:54;;;;;;;1.00;1.00;;;18.10;89.60;;;;;;5040281;28;20317;-73
2022/06/27 02:03:20;;;;;;;1.48;1.48;;;18.10;90.40;;;;;;5041515;28;20180;-73
2022/06/27 02:05:46;;;;;;;1.40;1.40;;;18.00;90.50;;;;;;5047984;28;20207;-73
2022/06/27 02:08:13;;;;;;;1.55;1.45;;;18.00;89.60;;;;;;5052156;28;20787;-73
2022/06/27 02:10:38;;;;;;;1.85;1.85;;;18.00;90.80;;;;;;5052886;28;20702;-73
2022/06/27 02:13:04;;;;;;;2.08;1.98;;;18.00;91.10;;;;;;5046687;28;20192;-73
2022/06/27 02:15:31;;;;;;;1.60;1.60;;;17.90;91.10;;;;;;5042898;28;20277;-73
2022/06/27 02:17:57;;;;;;;2.22;2.03;;;17.90;90.10;;;;;;5040419;28;20187;-73
2022/06/27 02:20:23;;;;;;;1.60;1.60;;;17.80;91.00;;;;;;5052751;28;20191;-74
2022/06/27 02:22:49;;;;;;;2.20;2.00;;;17.80;91.90;;;;;;5030519;28;20219;-73
2022/06/27 02:25:15;;;;;;;2.90;1.83;;;17.70;92.70;;;;;;5038981;28;20172;-73
2022/06/27 02:27:42;;;;;;;4.93;1.48;;;17.60;91.50;;;;;;5038897;28;20264;-73
2022/06/27 02:30:08;;;;;;;1.90;1.83;;;17.60;91.20;;;;;;5031778;28;20554;-73
2022/06/27 02:32:34;;;;;;;1.55;1.50;;;17.60;91.30;;;;;;5045146;28;20198;-73
2022/06/27 02:35:00;;;;;;;1.42;1.42;;;17.60;91.10;;;;;;5049119;28;20795;-73
2022/06/27 02:37:25;;;;;;;1.73;1.63;;;17.60;90.40;;;;;;5044695;28;20180;-73
2022/06/27 02:39:54;;;;;;;1.77;1.75;;;17.60;90.20;;;;;;5038975;28;20215;-73
2022/06/27 02:42:22;;;;;;;2.63;1.95;;;17.60;90.40;;;;;;5041981;28;20243;-73
2022/06/27 02:44:49;;;;;;;1.77;1.67;;;17.60;90.60;;;;;;5048711;28;20214;-73
2022/06/27 02:47:20;;;;;;;1.65;1.65;;;17.60;90.60;;;;;;5038164;28;20179;-73
2022/06/27 02:49:46;;;;;;;2.45;1.70;;;17.60;90.30;;;;;;5044838;28;20183;-72
2022/06/27 02:52:31;;;;;;;2.88;1.70;;;17.60;90.50;;;;;;5038144;28;20192;-74
2022/06/27 02:55:04;;;;;;;3.13;2.47;;;17.60;90.60;;;;;;5030706;28;20211;-72
2022/06/27 02:57:38;;;;;;;1.52;1.52;;;17.60;90.00;;;;;;5034231;28;20234;-72
2022/06/27 03:00:07;;;;;;;1.63;1.52;;;17.70;90.80;;;;;;5044296;28;20187;-73
2022/06/27 03:02:35;;;;;;;2.88;1.63;;;17.70;91.30;;;;;;5042228;28;20789;-72
2022/06/27 03:05:01;;;;;;;3.65;1.80;;;17.70;91.20;;;;;;5043822;28;20547;-73
2022/06/27 03:07:27;;;;;;;2.13;1.33;;;17.70;90.90;;;;;;5037511;28;20191;-73
2022/06/27 03:09:52;;;;;;;1.42;1.42;;;17.70;90.70;;;;;;5043717;28;20199;-73
2022/06/27 03:12:18;;;;;;;1.52;1.52;;;17.70;90.40;;;;;;5044083;28;20211;-73
2022/06/27 03:14:44;;;;;;;1.95;1.90;;;17.70;90.90;;;;;;5040944;28;20230;-73
2022/06/27 03:17:09;;;;;;;1.95;1.85;;;17.70;91.30;;;;;;5034317;28;20234;-73
2022/06/27 03:19:35;;;;;;;1.52;1.52;;;17.70;91.20;;;;;;5044221;28;20191;-72
2022/06/27 03:22:01;;;;;;;1.60;1.60;;;17.80;91.80;;;;;;5043209;28;20758;-73
2022/06/27 03:24:26;;;;;;;1.40;1.40;;;17.70;91.60;;;;;;5040498;28;20264;-72
2022/06/27 03:26:52;;;;;;;1.80;1.70;;;17.80;91.80;;;;;;5041924;28;20191;-72
2022/06/27 03:29:18;;;;;;;1.63;1.63;;;17.80;92.00;;;;;;5038836;28;20246;-73
2022/06/27 03:31:44;;;;;;;2.08;1.98;;;17.80;91.30;;;;;;5044094;28;20756;-73
2022/06/27 03:34:11;;;;;;;3.25;1.85;;;17.80;91.00;;;;;;5043566;28;20175;-73
2022/06/27 03:36:38;;;;;;;1.67;1.58;;;17.80;91.30;;;;;;5042542;28;20175;-73
2022/06/27 03:39:05;;;;;;;2.42;2.22;;;17.80;91.80;;;;;;5037818;28;20183;-73
2022/06/27 03:41:30;;;;;;;2.28;2.17;;;17.80;91.60;;;;;;5042070;28;20245;-73
2022/06/27 03:43:56;;;;;;;2.30;2.20;;;17.80;91.10;;;;;;5032456;28;20180;-73
2022/06/27 03:46:22;;;;;;;1.33;1.33;;;17.80;91.40;;;;;;5044197;28;20202;-73
2022/06/27 03:51:32;;;;;;;1.75;1.73;;;17.80;91.40;;;;;;5031470;28;20620;-73
2022/06/27 03:53:57;;;;;;;1.38;1.38;;;17.90;91.60;;;;;;5043214;28;20184;-73
2022/06/27 03:56:23;;;;;;;1.95;1.85;;;17.90;91.40;;;;;;5041797;28;20210;-74
2022/06/27 03:58:49;;;;;;;1.80;1.80;;;17.90;91.60;;;;;;5034439;28;20184;-73
2022/06/27 04:01:14;;;;;;;1.95;1.85;;;17.90;91.90;;;;;;5045220;28;20393;-73
2022/06/27 04:03:40;;;;;;;2.15;1.65;;;18.00;91.60;;;;;;5038144;28;20263;-73
2022/06/27 04:06:06;;;;;;;4.97;1.77;;;18.00;91.60;;;;;;5039812;28;20187;-73
2022/06/27 04:08:32;;;;;;;1.58;1.58;;;18.00;92.30;;;;;;5040464;28;20586;-73
2022/06/27 04:10:58;;;;;;;1.55;1.55;;;18.00;91.80;;;;;;5044301;28;20180;-73
2022/06/27 04:13:23;;;;;;;1.88;1.77;;;18.10;92.20;;;;;;5046632;28;20331;-72
2022/06/27 04:15:49;;;;;;;2.65;2.10;;;18.10;91.80;;;;;;5044569;28;20191;-73
2022/06/27 04:18:15;;;;;;;1.58;1.50;;;18.10;91.80;;;;;;5037792;28;20737;-73
2022/06/27 04:20:42;;;;;;;2.17;1.92;;;18.10;91.70;;;;;;5042366;28;20727;-72
2022/06/27 04:23:08;;;;;;;1.90;1.90;;;18.20;91.60;;;;;;5033709;28;20666;-74
2022/06/27 04:25:33;;;;;;;7.95;2.80;;;18.20;91.20;;;;;;5044095;28;20192;-73
2022/06/27 04:27:59;;;;;;;2.15;2.00;;;18.20;91.50;;;;;;5046625;28;20195;-70
2022/06/27 04:30:25;;;;;;;2.05;1.95;;;18.20;91.20;;;;;;5045177;28;20270;-70
2022/06/27 04:32:51;;;;;;;2.53;2.03;;;18.30;91.70;;;;;;5046530;28;20189;-70
2022/06/27 04:35:18;;;;;;;2.58;2.42;;;18.30;91.50;;;;;;5041668;28;20189;-70
2022/06/27 04:37:45;;;;;;;2.67;2.58;;;18.40;92.20;;;;;;5043689;28;20180;-70
2022/06/27 04:40:12;;;;;;;3.42;3.08;;;18.40;92.20;;;;;;5039628;28;20183;-73
2022/06/27 04:42:38;;;;;;;2.40;2.30;;;18.50;92.30;;;;;;5045164;28;20244;-72
2022/06/27 04:45:11;;;;;;;2.65;1.55;;;18.50;92.10;;;;;;5046285;28;20217;-72
2022/06/27 04:47:39;;;;;;;2.28;2.17;;;18.50;91.80;;;;;;5038338;28;20175;-72
2022/06/27 04:50:08;;;;;;;2.35;2.35;;;18.50;91.60;;;;;;5047791;28;20176;-72
2022/06/27 04:52:34;;;;;;;1.83;1.77;;;18.60;91.70;;;;;;5046528;28;20732;-72
2022/06/27 04:55:00;;;;;;;2.58;2.38;;;18.60;91.40;;;;;;5046826;28;20184;-72
2022/06/27 04:57:27;;;;;;;2.30;2.22;;;18.60;91.30;;;;;;5043630;28;20191;-72
2022/06/27 04:59:53;;;;;;;2.25;2.17;;;18.60;91.20;;;;;;5043372;28;20337;-72
2022/06/27 05:02:18;;;;;;;2.20;2.10;;;18.70;91.30;;;;;;5041337;28;20298;-71
2022/06/27 05:04:44;;;;;;;1.98;1.95;;;18.70;91.30;;;;;;5042564;28;20761;-71
2022/06/27 05:07:10;;;;;;;2.90;2.03;;;18.80;91.30;;;;;;5041939;28;20736;-74
2022/06/27 05:09:36;;;;;;;2.25;2.15;;;18.80;91.60;;;;;;5044572;28;20203;-73
2022/06/27 05:12:01;;;;;;;2.22;2.10;;;18.90;91.30;;;;;;5043851;28;20591;-74
2022/06/27 05:14:27;;;;;;;2.40;2.30;;;18.90;91.10;;;;;;5055944;28;20192;-74
2022/06/27 05:16:53;;;;;;;2.65;2.38;;;19.00;91.10;;;;;;5040992;28;20692;-74
2022/06/27 05:19:18;;;;;;;2.50;2.40;;;19.00;90.90;;;;;;5037957;28;20258;-74
2022/06/27 05:21:45;;;;;;;2.45;2.05;;;19.10;91.10;;;;;;5042697;28;20207;-74
2022/06/27 05:24:11;;;;;;;2.65;2.42;;;19.10;91.00;;;;;;5037249;28;20283;-73
2022/06/27 05:26:37;;;;;;;2.83;2.70;;;19.20;91.10;;;;;;5042902;28;20276;-73
2022/06/27 05:29:03;;;;;;;3.15;3.03;;;19.20;91.00;;;;;;5043226;28;20233;-74
2022/06/27 05:31:29;;;;;;;3.00;2.80;;;19.30;90.80;;;;;;5039869;28;20729;-75
2022/06/27 05:33:54;;;;;;;2.70;2.38;;;19.30;90.80;;;;;;5040385;28;20188;-74
2022/06/27 05:36:21;;;;;;;2.63;2.42;;;19.40;90.60;;;;;;5036810;28;20176;-75
2022/06/27 05:38:48;;;;;;;2.42;2.33;;;19.40;90.40;;;;;;5040541;28;20180;-75
2022/06/27 05:41:14;;;;;;;2.72;2.25;;;19.40;90.40;;;;;;5044629;28;20365;-74
2022/06/27 05:43:40;;;;;;;1.95;1.88;;;19.50;90.20;;;;;;5044375;28;20180;-73
2022/06/27 05:46:06;;;;;;;3.05;2.10;;;19.50;90.20;;;;;;5046216;28;20255;-72
2022/06/27 05:48:32;;;;;;;4.82;2.22;;;19.60;90.20;;;;;;5045502;28;20188;-73
2022/06/27 05:50:59;;;;;;;2.67;2.30;;;19.60;90.30;;;;;;5041558;28;20176;-73
2022/06/27 05:53:28;;;;;;;3.22;3.03;;;19.60;90.30;;;;;;5039727;28;20179;-72
2022/06/27 05:55:54;;;;;;;2.92;2.83;;;19.70;90.10;;;;;;5039142;28;20270;-73
2022/06/27 05:58:20;;;;;;;4.28;3.03;;;19.70;90.00;;;;;;5037362;28;20605;-76
2022/06/27 06:00:46;;;;;;;3.97;3.67;;;19.80;89.90;;;;;;5051441;28;20270;-77
2022/06/27 06:03:12;;;;;;;2.85;2.47;;;19.80;89.90;;;;;;5042473;28;20194;-76
2022/06/27 06:05:37;;;;;;;2.83;2.67;;;19.80;90.10;;;;;;5046581;28;20183;-76
2022/06/27 06:08:04;;;;;;;5.10;3.03;;;19.90;90.00;;;;;;5040377;28;20237;-76
2022/06/27 06:10:33;;;;;;;3.38;3.17;;;19.90;90.00;;;;;;5037528;28;20183;-75
2022/06/27 06:13:01;;;;;;;3.08;2.80;;;20.00;89.70;;;;;;5038394;28;20584;-76
2022/06/27 06:15:28;;;;;;;4.55;3.08;;;20.10;89.40;;;;;;5042231;28;20214;-76
2022/06/27 06:17:54;;;;;;;3.28;2.78;;;20.10;89.20;;;;;;5040298;28;20191;-77
2022/06/27 06:20:20;;;;;;;5.35;2.92;;;20.20;89.20;;;;;;5040682;28;20179;-76
2022/06/27 06:22:47;;;;;;;3.15;3.05;;;20.20;89.10;;;;;;5040342;28;20245;-75
2022/06/27 06:25:13;;;;;;;2.90;2.70;;;20.20;89.00;;;;;;5069197;28;20183;-76
2022/06/27 06:27:40;;;;;;;2.92;2.72;;;20.30;89.10;;;;;;5041109;28;20573;-76
2022/06/27 06:30:07;;;;;;;8.18;3.33;;;20.30;89.10;;;;;;5042049;28;20250;-74
2022/06/27 06:32:34;;;;;;;2.17;2.08;;;20.40;89.00;;;;;;5042366;28;20244;-76
2022/06/27 06:35:00;;;;;;;3.00;2.90;;;20.40;88.90;;;;;;5036921;28;20521;-74
2022/06/27 06:37:27;;;;;;;2.10;2.10;;;20.50;89.00;;;;;;5040436;28;20715;-74
2022/06/27 06:39:54;;;;;;;2.45;2.25;;;20.60;88.90;;;;;;5043900;28;20175;-76
2022/06/27 06:42:20;;;;;;;3.45;3.25;;;20.60;88.80;;;;;;5043377;28;20222;-76
2022/06/27 06:44:46;;;;;;;3.10;2.85;;;20.70;88.30;;;;;;5038179;28;20612;-75
2022/06/27 06:47:14;;;;;;;2.75;2.55;;;20.80;88.40;;;;;;5027666;28;20180;-76
2022/06/27 06:49:43;;;;;;;2.67;2.58;;;20.90;88.30;;;;;;5027674;28;20570;-77
2022/06/27 06:52:09;;;;;;;3.13;3.03;;;20.90;88.30;;;;;;5035769;28;20586;-75
2022/06/27 06:54:37;;;;;;;2.92;2.72;;;21.00;88.40;;;;;;5055212;28;20567;-75
2022/06/27 06:57:03;;;;;;;2.58;2.38;;;21.10;88.20;;;;;;5041044;28;20229;-74
2022/06/27 06:59:29;;;;;;;2.63;2.42;;;21.10;88.20;;;;;;5042200;28;20280;-75
2022/06/27 07:01:55;;;;;;;2.10;2.10;;;21.20;87.90;;;;;;5057176;28;20866;-77
2022/06/27 07:04:20;;;;;;;2.97;2.88;;;21.30;87.80;;;;;;5062968;28;20198;-77
2022/06/27 07:06:47;;;;;;;3.00;2.90;;;21.30;87.60;;;;;;5042005;28;20280;-77
2022/06/27 07:09:12;;;;;;;3.90;3.17;;;21.40;87.60;;;;;;5042808;28;20241;-76
2022/06/27 07:11:39;;;;;;;3.08;2.85;;;21.50;87.10;;;;;;5047092;28;20656;-75
2022/06/27 07:14:05;;;;;;;2.50;2.40;;;21.60;87.00;;;;;;5056298;28;20263;-77
2022/06/27 07:16:31;;;;;;;2.78;2.67;;;21.70;86.40;;;;;;5056346;28;20573;-76
2022/06/27 07:19:00;;;;;;;2.58;2.42;;;21.70;85.30;;;;;;5054636;28;20659;-77
2022/06/27 07:21:28;;;;;;;3.22;2.83;;;21.80;85.40;;;;;;5042853;28;20207;-76
2022/06/27 07:23:55;;;;;;;3.92;3.60;;;21.80;85.30;;;;;;5048305;28;20809;-77
2022/06/27 07:26:22;;;;;;;3.58;3.28;;;21.90;84.00;;;;;;5043572;28;20180;-76
2022/06/27 07:28:49;;;;;;;3.67;3.42;;;21.90;83.70;;;;;;5055267;28;20245;-76
2022/06/27 07:31:16;;;;;;;2.35;2.35;;;21.90;83.80;;;;;;5046301;28;20180;-74
2022/06/27 07:33:47;;;;;;;3.05;2.85;;;22.00;82.60;;;;;;5045834;28;20195;-75
2022/06/27 07:36:17;;;;;;;2.95;2.85;;;22.00;82.50;;;;;;5043661;28;20187;-76
2022/06/27 07:38:46;;;;;;;2.33;2.22;;;22.00;83.00;;;;;;5082496;28;20209;-77
2022/06/27 07:41:14;;;;;;;2.78;2.58;;;22.10;83.70;;;;;;5041079;28;20222;-76
2022/06/27 07:43:40;;;;;;;2.42;2.33;;;22.10;82.40;;;;;;5056171;28;20219;-76
2022/06/27 07:46:06;;;;;;;2.30;2.30;;;22.20;81.80;;;;;;5029960;28;20231;-76
2022/06/27 07:48:33;;;;;;;2.70;2.60;;;22.20;81.90;;;;;;5037978;28;20207;-76
2022/06/27 07:50:58;;;;;;;2.33;2.33;;;22.30;81.00;;;;;;5039919;28;20186;-76
2022/06/27 07:53:26;;;;;;;2.03;2.03;;;22.30;81.60;;;;;;5038928;28;20179;-76
2022/06/27 07:55:57;;;;;;;2.28;2.13;;;22.40;82.60;;;;;;5039713;28;20299;-76
2022/06/27 07:58:35;;;;;;;2.15;2.15;;;22.50;81.20;;;;;;5039597;28;20186;-76
2022/06/27 08:01:07;;;;;;;2.90;2.70;;;22.50;81.80;;;;;;5037988;28;20200;-76
2022/06/27 08:03:36;;;;;;;2.08;2.08;;;22.60;80.60;;;;;;5036582;28;20180;-76
2022/06/27 08:06:05;;;;;;;5.97;3.45;;;22.70;81.10;;;;;;5037333;28;20245;-75
2022/06/27 08:08:32;;;;;;;2.95;2.80;;;22.80;80.10;;;;;;5038766;28;20187;-76
2022/06/27 08:10:58;;;;;;;2.50;2.40;;;22.80;78.80;;;;;;5037795;28;20478;-75
2022/06/27 08:13:24;;;;;;;2.40;2.30;;;22.90;79.40;;;;;;5037324;28;20662;-75
2022/06/27 08:15:50;;;;;;;2.65;2.65;;;22.90;79.90;;;;;;5038976;28;20198;-75
2022/06/27 08:18:17;;;;;;;2.40;2.30;;;23.00;80.40;;;;;;5036332;28;20184;-75
2022/06/27 08:20:45;;;;;;;2.30;2.25;;;23.10;80.70;;;;;;5038706;28;20233;-76
2022/06/27 08:23:15;;;;;;;1.83;1.77;;;23.10;81.10;;;;;;5059514;28;20216;-76
2022/06/27 08:25:42;;;;;;;2.58;2.47;;;23.20;81.20;;;;;;5048081;28;20183;-76
2022/06/27 08:28:09;;;;;;;2.83;2.67;;;23.30;80.40;;;;;;5047723;28;20476;-76
2022/06/27 08:30:37;;;;;;;2.10;2.00;;;23.40;80.10;;;;;;5049003;28;20180;-76
2022/06/27 08:33:03;;;;;;;1.98;1.98;;;23.50;78.60;;;;;;5042347;28;20198;-72
2022/06/27 08:35:29;;;;;;;2.88;1.92;;;23.50;79.40;;;;;;5042435;28;20877;-74
2022/06/27 08:37:58;;;;;;;2.13;2.03;;;23.60;79.80;;;;;;5044012;28;20634;-74
2022/06/27 08:40:25;;;;;;;2.08;1.90;;;23.70;77.20;;;;;;5046981;28;20191;-74
2022/06/27 08:42:52;;;;;;;53.58;5.50;;;23.80;76.70;;;;;;5046500;28;20211;-74
2022/06/27 08:45:20;;;;;;;1.55;1.55;;;23.90;77.00;;;;;;5042519;28;20193;-74
2022/06/27 08:47:46;;;;;;;2.30;2.20;;;24.00;78.30;;;;;;5049050;28;20660;-73
2022/06/27 08:50:14;;;;;;;1.48;1.48;;;24.10;78.70;;;;;;5052947;28;20273;-74
2022/06/27 08:52:44;;;;;;;2.05;1.65;;;24.20;78.10;;;;;;5067124;28;20645;-74
2022/06/27 08:55:10;;;;;;;1.90;1.73;;;24.30;76.10;;;;;;5049712;28;20605;-73
2022/06/27 08:57:39;;;;;;;2.17;2.17;;;24.40;75.10;;;;;;5047674;28;20179;-74
2022/06/27 09:00:06;;;;;;;2.67;2.47;;;24.60;75.20;;;;;;5049334;28;20663;-74
2022/06/27 09:02:42;;;;;;;2.17;2.10;;;24.70;75.70;;;;;;5046220;28;20223;-74
2022/06/27 09:05:30;;;;;;;2.45;2.30;;;24.80;75.80;;;;;;5043330;28;20183;-75
2022/06/27 09:08:04;;;;;;;2.03;2.03;;;25.00;76.00;;;;;;5052816;28;20191;-75
2022/06/27 09:10:33;;;;;;;2.40;1.92;;;25.10;74.40;;;;;;5044561;28;20622;-76
2022/06/27 09:13:12;;;;;;;2.58;2.45;;;25.20;74.70;;;;;;5041212;28;20683;-75
2022/06/27 09:15:40;;;;;;;4.32;2.28;;;25.30;75.60;;;;;;5051620;28;20221;-75
2022/06/27 09:18:09;;;;;;;2.08;1.98;;;25.40;73.80;;;;;;5053047;28;20919;-75
2022/06/27 09:20:54;;;;;;;4.63;2.40;;;25.50;74.00;;;;;;5049920;28;20184;-74
2022/06/27 09:23:49;;;;;;;3.42;2.20;;;25.60;74.40;;;;;;5047189;28;20223;-78
2022/06/27 09:26:21;;;;;;;1.60;1.60;;;25.70;74.80;;;;;;5048440;28;20188;-75
2022/06/27 09:28:48;;;;;;;2.20;2.05;;;25.80;73.50;;;;;;5050732;28;20183;-75
2022/06/27 09:31:30;;;;;;;2.03;2.03;;;25.90;73.70;;;;;;5049430;28;20176;-75
2022/06/27 09:34:15;;;;;;;3.10;2.95;;;26.00;73.20;;;;;;5045503;28;20171;-75
2022/06/27 09:36:42;;;;;;;2.20;2.03;;;26.20;71.30;;;;;;5050959;28;20985;-75
2022/06/27 09:39:22;;;;;;;1.95;1.95;;;26.20;71.20;;;;;;5047420;28;20630;-75
2022/06/27 09:42:13;;;;;;;2.30;2.10;;;26.30;72.00;;;;;;5043812;28;20217;-75
2022/06/27 09:44:44;;;;;;;2.28;2.22;;;26.40;72.10;;;;;;5052090;28;20194;-75
2022/06/27 09:47:25;;;;;;;4.60;1.83;;;26.50;73.00;;;;;;5050579;28;20179;-74
2022/06/27 09:49:52;;;;;;;2.22;2.13;;;26.50;71.40;;;;;;5048608;28;20206;-75
2022/06/27 09:52:23;;;;;;;2.03;1.95;;;26.60;72.10;;;;;;5047981;28;20241;-75
2022/06/27 09:54:51;;;;;;;1.40;1.40;;;26.70;70.20;;;;;;5048180;28;20643;-74
2022/06/27 09:57:18;;;;;;;2.13;2.03;;;26.80;70.20;;;;;;5051640;28;20179;-75
2022/06/27 09:59:46;;;;;;;2.40;2.30;;;26.90;69.10;;;;;;5050734;28;20175;-75
2022/06/27 10:02:16;;;;;;;1.85;1.75;;;27.00;70.20;;;;;;5051705;28;20953;-75
2022/06/27 10:04:46;;;;;;;2.22;2.15;;;27.10;70.50;;;;;;5049497;28;20180;-75
2022/06/27 10:07:15;;;;;;;2.08;1.98;;;27.20;70.70;;;;;;5050641;28;20205;-76
2022/06/27 10:09:41;;;;;;;2.20;2.17;;;27.30;69.10;;;;;;5050103;28;20547;-75
2022/06/27 10:12:24;;;;;;;3.17;1.95;;;27.40;69.80;;;;;;5051749;28;20183;-75
2022/06/27 10:15:12;;;;;;;2.17;2.17;;;27.60;70.30;;;;;;5049090;28;20190;-75
2022/06/27 10:17:47;;;;;;;3.05;2.47;;;27.70;70.20;;;;;;5050468;28;20187;-75
2022/06/27 10:20:21;;;;;;;1.90;1.90;;;27.90;68.10;;;;;;5047437;28;20182;-75
2022/06/27 10:23:11;;;;;;;1.90;1.90;;;28.10;67.80;;;;;;5046378;28;20246;-75
2022/06/27 10:25:38;;;;;;;1.52;1.52;;;28.20;67.20;;;;;;5050561;28;20611;-76
2022/06/27 10:28:10;;;;;;;2.33;2.33;;;28.30;65.80;;;;;;5050886;28;20184;-75
2022/06/27 10:31:02;;;;;;;2.60;2.38;;;28.30;65.80;;;;;;5048334;28;20263;-75
2022/06/27 10:33:28;;;;;;;2.20;2.10;;;28.30;66.00;;;;;;5051148;28;20728;-75
2022/06/27 10:36:10;;;;;;;3.00;2.22;;;28.40;66.90;;;;;;5048630;28;20547;-75
2022/06/27 10:38:39;;;;;;;1.95;1.95;;;28.60;68.40;;;;;;5052011;28;20179;-75
2022/06/27 10:41:08;;;;;;;2.25;1.98;;;28.80;66.20;;;;;;5050645;28;20787;-75
2022/06/27 10:43:36;;;;;;;2.40;2.17;;;29.10;65.90;;;;;;5051048;28;20186;-76
2022/06/27 10:46:05;;;;;;;3.97;2.47;;;29.40;64.50;;;;;;5048814;28;20595;-74
2022/06/27 10:48:55;;;;;;;1.83;1.83;;;29.70;65.00;;;;;;5052296;28;20171;-75
2022/06/27 10:51:34;;;;;;;2.00;1.90;;;30.10;63.70;;;;;;5046369;28;20211;-71
2022/06/27 10:54:07;;;;;;;1.95;1.95;;;30.60;61.90;;;;;;5044053;28;20191;-72
2022/06/27 10:56:45;;;;;;;2.13;2.13;;;31.00;63.20;;;;;;5049785;28;20191;-72
2022/06/27 10:59:15;;;;;;;2.28;1.92;;;31.50;61.50;;;;;;5037264;28;21192;-71
2022/06/27 11:02:02;;;;;;;1.75;1.75;;;32.00;60.40;;;;;;5045048;28;20226;-74
2022/06/27 11:04:29;;;;;;;1.80;1.80;;;32.60;58.20;;;;;;5015869;28;20721;-73
2022/06/27 11:07:00;;;;;;;1.92;1.92;;;33.20;57.60;;;;;;5017350;28;20196;-74
2022/06/27 11:09:40;;;;;;;2.33;2.25;;;33.60;56.90;;;;;;5016283;28;20188;-73
2022/06/27 11:12:08;;;;;;;2.15;2.05;;;34.10;58.30;;;;;;5023510;28;20218;-73
2022/06/27 11:15:03;;;;;;;1.52;1.52;;;34.40;57.20;;;;;;5015011;28;20254;-73
2022/06/27 11:17:49;;;;;;;2.15;2.10;;;34.60;56.00;;;;;;4977993;28;20284;-73
2022/06/27 11:20:16;;;;;;;2.40;2.30;;;34.80;55.70;;;;;;4975677;28;20788;-73
2022/06/27 11:23:03;;;;;;;1.85;1.85;;;34.70;55.10;;;;;;4976187;28;20340;-73
2022/06/27 11:25:30;;;;;;;1.80;1.80;;;35.00;55.60;;;;;;4976839;28;20235;-73
2022/06/27 11:33:36;;;;;;;1.92;1.92;;;35.00;54.30;;;;;;4976054;28;20263;-73
2022/06/27 11:36:03;;;;;;;1.67;1.67;;;35.10;54.50;;;;;;4977943;28;20827;-73
2022/06/27 11:38:41;;;;;;;1.98;1.92;;;35.40;53.40;;;;;;4978228;28;20349;-74
2022/06/27 11:41:10;;;;;;;1.45;1.45;;;35.80;52.80;;;;;;4973941;28;20192;-73
2022/06/27 11:43:56;;;;;;;1.40;1.40;;;36.20;53.30;;;;;;4975762;28;20213;-73
2022/06/27 11:46:29;;;;;;;1.20;1.20;;;36.80;51.10;;;;;;4956665;28;20188;-73
2022/06/27 11:49:17;;;;;;;1.85;1.73;;;37.20;50.40;;;;;;4977446;28;20571;-74
2022/06/27 11:51:47;;;;;;;1.77;1.67;;;37.60;49.50;;;;;;4957824;28;20690;-74
2022/06/27 11:54:20;;;;;;;1.17;1.17;;;37.90;51.00;;;;;;5013438;28;20195;-73
2022/06/27 11:56:48;;;;;;;1.33;1.33;;;38.20;50.00;;;;;;5045370;28;20179;-73
2022/06/27 11:59:15;;;;;;;1.80;1.70;;;38.50;50.50;;;;;;5047847;28;20555;-73
2022/06/27 12:01:55;;;;;;;1.67;1.67;;;38.70;49.60;;;;;;5045554;28;20232;-74
2022/06/27 12:04:26;;;;;;;1.52;1.50;;;38.90;49.70;;;;;;5042677;28;20213;-74
2022/06/27 12:07:12;;;;;;;1.45;1.40;;;39.10;51.60;;;;;;5049294;28;20211;-73
2022/06/27 12:09:49;;;;;;;2.53;1.70;;;39.40;50.60;;;;;;5046891;28;20195;-73
2022/06/27 12:12:26;;;;;;;2.08;1.83;;;39.50;48.70;;;;;;5049641;28;20232;-73
2022/06/27 12:14:53;;;;;;;1.52;1.52;;;39.50;47.00;;;;;;5047149;28;20649;-73
2022/06/27 12:17:20;;;;;;;1.50;1.50;;;39.00;49.70;;;;;;5046911;28;20225;-73
2022/06/27 12:19:47;;;;;;;1.50;1.50;;;38.60;52.00;;;;;;5041314;28;20175;-73
2022/06/27 12:22:18;;;;;;;1.90;1.80;;;38.10;49.60;;;;;;5053913;28;20237;-72
2022/06/27 12:24:45;;;;;;;3.28;2.00;;;37.30;51.00;;;;;;5053707;28;20179;-73
2022/06/27 12:27:11;;;;;;;1.77;1.60;;;36.80;51.40;;;;;;5050003;28;20180;-72
2022/06/27 12:29:36;;;;;;;1.65;1.65;;;36.50;53.40;;;;;;5052009;28;20248;-72
2022/06/27 12:32:03;;;;;;;1.25;1.23;;;36.50;53.40;;;;;;5051908;28;20736;-73
2022/06/27 12:34:30;;;;;;;4.18;1.48;;;36.80;53.70;;;;;;5049206;28;20186;-72
2022/06/27 12:36:56;;;;;;;1.40;1.40;;;36.60;53.50;;;;;;5049526;28;20955;-73
2022/06/27 12:39:23;;;;;;;1.77;1.67;;;36.60;52.90;;;;;;5050608;28;20792;-73
2022/06/27 12:41:50;;;;;;;1.50;1.50;;;36.30;52.80;;;;;;5050378;28;20221;-73
2022/06/27 12:44:16;;;;;;;1.45;1.45;;;36.10;52.00;;;;;;5048182;28;20254;-73
2022/06/27 12:46:42;;;;;;;2.00;1.90;;;36.40;52.70;;;;;;5047896;28;20297;-73
2022/06/27 12:49:08;;;;;;;2.03;1.73;;;36.60;52.80;;;;;;5050138;28;20675;-73
2022/06/27 12:51:34;;;;;;;2.28;1.67;;;36.50;53.30;;;;;;5043303;28;20275;-73
2022/06/27 12:54:00;;;;;;;1.35;1.35;;;36.30;52.20;;;;;;5050109;28;20178;-73
2022/06/27 12:56:26;;;;;;;1.60;1.60;;;36.00;51.90;;;;;;5045214;28;20289;-72
2022/06/27 12:58:52;;;;;;;1.58;1.52;;;35.80;54.60;;;;;;5045883;28;20187;-73
2022/06/27 13:01:18;;;;;;;1.50;1.40;;;35.40;55.60;;;;;;5048513;28;20179;-73
2022/06/27 13:03:44;;;;;;;3.63;1.60;;;35.00;55.20;;;;;;5052238;28;20210;-73
2022/06/27 13:06:10;;;;;;;1.40;1.40;;;34.70;56.50;;;;;;5048045;28;20577;-73